sensor_id;sensor_type;location;lat;lon;timestamp;temperature;humidity
23283;DHT22;11810;51.178;3.878;2023-06-10T00:01:46;21.90;99.90
23283;DHT22;11810;51.178;3.878;2023-06-10T00:04:15;21.90;99.90
23283;DHT22;11810;51.178;3.878;2023-06-10T00:06:43;21.80;99.90
23283;DHT22;11810;51.178;3.878;2023-06-10T00:09:09;21.60;99.90
23283;DHT22;11810;51.178;3.878;2023-06-10T00:11:40;21.60;99.90
23283;DHT22;11810;51.178;3.878;2023-06-10T00:14:06;21.60;99.90
23283;DHT22;11810;51.178;3.878;2023-06-10T00:16:32;21.60;99.90
23283;DHT22;11810;51.178;3.878;2023-06-10T00:18:59;21.60;99.90
23283;DHT22;11810;51.178;3.878;2023-06-10T00:21:28;21.80;99.90
23283;DHT22;11810;51.178;3.878;2023-06-10T00:23:54;21.70;99.90
23283;DHT22;11810;51.178;3.878;2023-06-10T00:26:22;21.70;99.90
23283;DHT22;11810;51.178;3.878;2023-06-10T00:28:48;21.60;99.90
23283;DHT22;11810;51.178;3.878;2023-06-10T00:31:14;21.50;99.90
23283;DHT22;11810;51.178;3.878;2023-06-10T00:33:40;21.50;99.90
23283;DHT22;11810;51.178;3.878;2023-06-10T00:36:06;21.60;99.90
23283;DHT22;11810;51.178;3.878;2023-06-10T00:38:31;21.50;99.90
23283;DHT22;11810;51.178;3.878;2023-06-10T00:40:57;21.40;99.90
23283;DHT22;11810;51.178;3.878;2023-06-10T00:43:23;21.40;99.90
23283;DHT22;11810;51.178;3.878;2023-06-10T00:45:50;21.40;99.90
23283;DHT22;11810;51.178;3.878;2023-06-10T00:48:17;21.30;99.90
23283;DHT22;11810;51.178;3.878;2023-06-10T00:50:43;21.20;99.90
23283;DHT22;11810;51.178;3.878;2023-06-10T00:53:09;21.00;99.90
23283;DHT22;11810;51.178;3.878;2023-06-10T00:55:37;21.00;99.90
23283;DHT22;11810;51.178;3.878;2023-06-10T00:58:03;20.90;99.90
23283;DHT22;11810;51.178;3.878;2023-06-10T01:00:30;20.90;99.90
23283;DHT22;11810;51.178;3.878;2023-06-10T01:02:55;21.00;99.90
23283;DHT22;11810;51.178;3.878;2023-06-10T01:05:23;21.00;99.90
23283;DHT22;11810;51.178;3.878;2023-06-10T01:07:58;20.90;99.90
23283;DHT22;11810;51.178;3.878;2023-06-10T01:10:38;20.90;99.90
23283;DHT22;11810;51.178;3.878;2023-06-10T01:13:09;20.90;99.90
23283;DHT22;11810;51.178;3.878;2023-06-10T01:15:37;20.80;99.90
23283;DHT22;11810;51.178;3.878;2023-06-10T01:18:05;20.90;99.90
23283;DHT22;11810;51.178;3.878;2023-06-10T01:20:37;20.90;99.90
23283;DHT22;11810;51.178;3.878;2023-06-10T01:23:06;20.70;99.90
23283;DHT22;11810;51.178;3.878;2023-06-10T01:25:34;20.70;99.90
23283;DHT22;11810;51.178;3.878;2023-06-10T01:33:32;20.80;99.90
23283;DHT22;11810;51.178;3.878;2023-06-10T01:35:59;20.70;99.90
23283;DHT22;11810;51.178;3.878;2023-06-10T01:38:27;20.70;99.90
23283;DHT22;11810;51.178;3.878;2023-06-10T01:40:56;20.70;99.90
23283;DHT22;11810;51.178;3.878;2023-06-10T01:43:22;20.60;99.90
23283;DHT22;11810;51.178;3.878;2023-06-10T01:45:48;20.50;99.90
23283;DHT22;11810;51.178;3.878;2023-06-10T01:48:14;20.40;99.90
23283;DHT22;11810;51.178;3.878;2023-06-10T01:50:40;20.40;99.90
23283;DHT22;11810;51.178;3.878;2023-06-10T01:53:06;20.30;99.90
23283;DHT22;11810;51.178;3.878;2023-06-10T01:55:32;20.30;99.90
23283;DHT22;11810;51.178;3.878;2023-06-10T01:57:58;20.20;99.90
23283;DHT22;11810;51.178;3.878;2023-06-10T02:00:24;20.20;99.90
23283;DHT22;11810;51.178;3.878;2023-06-10T02:02:50;20.20;99.90
23283;DHT22;11810;51.178;3.878;2023-06-10T02:05:16;20.20;99.90
23283;DHT22;11810;51.178;3.878;2023-06-10T02:07:42;20.20;99.90
23283;DHT22;11810;51.178;3.878;2023-06-10T02:10:08;20.00;99.90
23283;DHT22;11810;51.178;3.878;2023-06-10T02:12:34;20.00;99.90
23283;DHT22;11810;51.178;3.878;2023-06-10T02:15:00;19.90;99.90
23283;DHT22;11810;51.178;3.878;2023-06-10T02:17:26;19.80;99.90
23283;DHT22;11810;51.178;3.878;2023-06-10T02:19:53;19.80;99.90
23283;DHT22;11810;51.178;3.878;2023-06-10T02:22:21;19.70;99.90
23283;DHT22;11810;51.178;3.878;2023-06-10T02:24:47;19.80;99.90
23283;DHT22;11810;51.178;3.878;2023-06-10T02:27:14;19.80;99.90
23283;DHT22;11810;51.178;3.878;2023-06-10T02:29:40;19.60;99.90
23283;DHT22;11810;51.178;3.878;2023-06-10T02:32:07;19.50;99.90
23283;DHT22;11810;51.178;3.878;2023-06-10T02:34:33;19.50;99.90
23283;DHT22;11810;51.178;3.878;2023-06-10T02:37:00;19.40;99.90
23283;DHT22;11810;51.178;3.878;2023-06-10T02:39:27;19.30;99.90
23283;DHT22;11810;51.178;3.878;2023-06-10T02:41:53;19.20;99.90
23283;DHT22;11810;51.178;3.878;2023-06-10T02:44:19;19.20;99.90
23283;DHT22;11810;51.178;3.878;2023-06-10T02:46:46;19.20;99.90
23283;DHT22;11810;51.178;3.878;2023-06-10T02:49:12;19.00;99.90
23283;DHT22;11810;51.178;3.878;2023-06-10T02:51:38;18.90;99.90
23283;DHT22;11810;51.178;3.878;2023-06-10T02:54:05;18.90;99.90
23283;DHT22;11810;51.178;3.878;2023-06-10T02:56:31;19.00;99.90
23283;DHT22;11810;51.178;3.878;2023-06-10T02:58:58;18.90;99.90
23283;DHT22;11810;51.178;3.878;2023-06-10T03:01:25;19.10;99.90
23283;DHT22;11810;51.178;3.878;2023-06-10T03:03:51;19.00;99.90
23283;DHT22;11810;51.178;3.878;2023-06-10T03:06:18;19.00;99.90
23283;DHT22;11810;51.178;3.878;2023-06-10T03:08:44;18.90;99.90
23283;DHT22;11810;51.178;3.878;2023-06-10T03:11:11;18.80;99.90
23283;DHT22;11810;51.178;3.878;2023-06-10T03:13:38;18.80;99.90
23283;DHT22;11810;51.178;3.878;2023-06-10T03:16:05;18.70;99.90
23283;DHT22;11810;51.178;3.878;2023-06-10T03:18:31;18.80;99.90
23283;DHT22;11810;51.178;3.878;2023-06-10T03:20:57;18.70;99.90
23283;DHT22;11810;51.178;3.878;2023-06-10T03:23:23;18.70;99.90
23283;DHT22;11810;51.178;3.878;2023-06-10T03:25:49;18.60;99.90
23283;DHT22;11810;51.178;3.878;2023-06-10T03:28:15;18.50;99.90
23283;DHT22;11810;51.178;3.878;2023-06-10T03:30:41;18.40;99.90
23283;DHT22;11810;51.178;3.878;2023-06-10T03:33:07;18.50;99.90
23283;DHT22;11810;51.178;3.878;2023-06-10T03:35:33;18.50;99.90
23283;DHT22;11810;51.178;3.878;2023-06-10T03:38:00;18.40;99.90
23283;DHT22;11810;51.178;3.878;2023-06-10T03:40:26;18.40;99.90
23283;DHT22;11810;51.178;3.878;2023-06-10T03:42:52;18.30;99.90
23283;DHT22;11810;51.178;3.878;2023-06-10T03:45:18;18.30;99.90
23283;DHT22;11810;51.178;3.878;2023-06-10T03:47:44;18.30;99.90
23283;DHT22;11810;51.178;3.878;2023-06-10T03:50:10;18.30;99.90
23283;DHT22;11810;51.178;3.878;2023-06-10T03:52:38;18.20;99.90
23283;DHT22;11810;51.178;3.878;2023-06-10T03:55:04;18.20;99.90
23283;DHT22;11810;51.178;3.878;2023-06-10T03:57:31;18.40;99.90
23283;DHT22;11810;51.178;3.878;2023-06-10T03:59:57;18.60;99.90
23283;DHT22;11810;51.178;3.878;2023-06-10T04:02:23;18.60;99.90
23283;DHT22;11810;51.178;3.878;2023-06-10T04:04:49;18.70;99.90
23283;DHT22;11810;51.178;3.878;2023-06-10T04:07:17;18.70;99.90
23283;DHT22;11810;51.178;3.878;2023-06-10T04:09:44;18.80;99.90
23283;DHT22;11810;51.178;3.878;2023-06-10T04:12:10;18.90;99.90
23283;DHT22;11810;51.178;3.878;2023-06-10T04:14:36;19.00;99.90
23283;DHT22;11810;51.178;3.878;2023-06-10T04:17:04;19.00;99.90
23283;DHT22;11810;51.178;3.878;2023-06-10T04:19:32;19.10;99.90
23283;DHT22;11810;51.178;3.878;2023-06-10T04:22:00;19.10;99.90
23283;DHT22;11810;51.178;3.878;2023-06-10T04:24:27;19.20;99.90
23283;DHT22;11810;51.178;3.878;2023-06-10T04:26:53;19.40;99.90
23283;DHT22;11810;51.178;3.878;2023-06-10T04:29:19;19.50;99.90
23283;DHT22;11810;51.178;3.878;2023-06-10T04:31:45;19.60;99.90
23283;DHT22;11810;51.178;3.878;2023-06-10T04:34:12;19.80;99.90
23283;DHT22;11810;51.178;3.878;2023-06-10T04:36:39;20.00;99.90
23283;DHT22;11810;51.178;3.878;2023-06-10T04:39:05;20.20;99.90
23283;DHT22;11810;51.178;3.878;2023-06-10T04:41:33;20.20;99.90
23283;DHT22;11810;51.178;3.878;2023-06-10T04:43:59;20.40;99.90
23283;DHT22;11810;51.178;3.878;2023-06-10T04:46:25;20.50;99.90
23283;DHT22;11810;51.178;3.878;2023-06-10T04:48:51;20.50;99.90
23283;DHT22;11810;51.178;3.878;2023-06-10T04:51:17;20.60;99.90
23283;DHT22;11810;51.178;3.878;2023-06-10T04:53:43;20.60;99.90
23283;DHT22;11810;51.178;3.878;2023-06-10T04:56:10;20.70;99.90
23283;DHT22;11810;51.178;3.878;2023-06-10T04:58:36;20.90;99.90
23283;DHT22;11810;51.178;3.878;2023-06-10T05:01:02;21.00;99.90
23283;DHT22;11810;51.178;3.878;2023-06-10T05:03:28;21.20;99.90
23283;DHT22;11810;51.178;3.878;2023-06-10T05:05:54;21.30;99.90
23283;DHT22;11810;51.178;3.878;2023-06-10T05:08:20;21.50;99.90
23283;DHT22;11810;51.178;3.878;2023-06-10T05:10:46;21.70;99.90
23283;DHT22;11810;51.178;3.878;2023-06-10T05:13:12;21.80;99.90
23283;DHT22;11810;51.178;3.878;2023-06-10T05:15:38;22.00;99.90
23283;DHT22;11810;51.178;3.878;2023-06-10T05:18:04;22.10;99.90
23283;DHT22;11810;51.178;3.878;2023-06-10T05:20:30;22.20;99.90
23283;DHT22;11810;51.178;3.878;2023-06-10T05:22:56;22.30;99.90
23283;DHT22;11810;51.178;3.878;2023-06-10T05:25:22;22.40;99.90
23283;DHT22;11810;51.178;3.878;2023-06-10T05:27:48;22.60;99.90
23283;DHT22;11810;51.178;3.878;2023-06-10T05:30:14;22.80;99.90
23283;DHT22;11810;51.178;3.878;2023-06-10T05:32:39;23.10;99.90
23283;DHT22;11810;51.178;3.878;2023-06-10T05:35:05;23.30;99.90
23283;DHT22;11810;51.178;3.878;2023-06-10T05:37:33;23.60;99.90
23283;DHT22;11810;51.178;3.878;2023-06-10T05:40:00;23.80;99.90
23283;DHT22;11810;51.178;3.878;2023-06-10T05:42:26;23.90;99.90
23283;DHT22;11810;51.178;3.878;2023-06-10T05:44:52;24.30;99.90
23283;DHT22;11810;51.178;3.878;2023-06-10T05:47:18;24.60;99.90
23283;DHT22;11810;51.178;3.878;2023-06-10T05:49:44;24.90;99.90
23283;DHT22;11810;51.178;3.878;2023-06-10T05:52:11;25.20;99.90
23283;DHT22;11810;51.178;3.878;2023-06-10T05:54:37;25.30;99.90
23283;DHT22;11810;51.178;3.878;2023-06-10T05:57:03;25.40;99.90
23283;DHT22;11810;51.178;3.878;2023-06-10T05:59:29;25.70;99.90
23283;DHT22;11810;51.178;3.878;2023-06-10T06:01:55;25.80;99.90
23283;DHT22;11810;51.178;3.878;2023-06-10T06:04:21;25.80;99.90
23283;DHT22;11810;51.178;3.878;2023-06-10T06:06:47;26.10;99.90
23283;DHT22;11810;51.178;3.878;2023-06-10T06:09:13;26.30;99.90
23283;DHT22;11810;51.178;3.878;2023-06-10T06:11:39;26.60;99.90
23283;DHT22;11810;51.178;3.878;2023-06-10T06:14:05;26.90;99.90
23283;DHT22;11810;51.178;3.878;2023-06-10T06:16:31;27.20;99.90
23283;DHT22;11810;51.178;3.878;2023-06-10T06:18:57;27.30;99.90
23283;DHT22;11810;51.178;3.878;2023-06-10T06:21:23;27.20;99.90
23283;DHT22;11810;51.178;3.878;2023-06-10T06:23:49;27.50;99.90
23283;DHT22;11810;51.178;3.878;2023-06-10T06:26:15;27.90;99.90
23283;DHT22;11810;51.178;3.878;2023-06-10T06:28:41;28.40;99.90
23283;DHT22;11810;51.178;3.878;2023-06-10T06:31:07;28.60;99.90
23283;DHT22;11810;51.178;3.878;2023-06-10T06:33:33;28.60;99.90
23283;DHT22;11810;51.178;3.878;2023-06-10T06:35:59;28.70;99.90
23283;DHT22;11810;51.178;3.878;2023-06-10T06:38:26;28.90;99.90
23283;DHT22;11810;51.178;3.878;2023-06-10T06:40:52;29.10;99.90
23283;DHT22;11810;51.178;3.878;2023-06-10T06:43:18;29.30;99.90
23283;DHT22;11810;51.178;3.878;2023-06-10T06:45:44;29.30;99.90
23283;DHT22;11810;51.178;3.878;2023-06-10T06:48:13;29.10;99.90
23283;DHT22;11810;51.178;3.878;2023-06-10T06:50:39;29.30;99.90
23283;DHT22;11810;51.178;3.878;2023-06-10T06:53:07;29.60;99.90
23283;DHT22;11810;51.178;3.878;2023-06-10T06:55:33;29.70;99.90
23283;DHT22;11810;51.178;3.878;2023-06-10T06:57:59;29.60;99.90
23283;DHT22;11810;51.178;3.878;2023-06-10T07:00:28;29.80;99.90
23283;DHT22;11810;51.178;3.878;2023-06-10T07:02:54;30.20;99.90
23283;DHT22;11810;51.178;3.878;2023-06-10T07:05:20;30.30;99.90
23283;DHT22;11810;51.178;3.878;2023-06-10T07:07:46;30.30;99.90
23283;DHT22;11810;51.178;3.878;2023-06-10T07:10:12;30.40;99.90
23283;DHT22;11810;51.178;3.878;2023-06-10T07:12:40;30.70;99.90
23283;DHT22;11810;51.178;3.878;2023-06-10T07:15:06;31.30;99.90
23283;DHT22;11810;51.178;3.878;2023-06-10T07:17:32;31.40;99.90
23283;DHT22;11810;51.178;3.878;2023-06-10T07:20:00;31.70;99.90
23283;DHT22;11810;51.178;3.878;2023-06-10T07:22:26;31.80;99.90
23283;DHT22;11810;51.178;3.878;2023-06-10T07:24:52;32.40;99.90
23283;DHT22;11810;51.178;3.878;2023-06-10T07:27:20;32.20;99.90
23283;DHT22;11810;51.178;3.878;2023-06-10T07:29:46;32.30;99.90
23283;DHT22;11810;51.178;3.878;2023-06-10T07:32:12;32.20;99.90
23283;DHT22;11810;51.178;3.878;2023-06-10T07:34:38;32.60;99.90
23283;DHT22;11810;51.178;3.878;2023-06-10T07:37:04;32.70;99.90
23283;DHT22;11810;51.178;3.878;2023-06-10T07:39:30;32.80;99.90
23283;DHT22;11810;51.178;3.878;2023-06-10T07:41:56;33.30;99.90
23283;DHT22;11810;51.178;3.878;2023-06-10T07:44:23;33.50;99.90
23283;DHT22;11810;51.178;3.878;2023-06-10T07:46:49;33.30;99.90
23283;DHT22;11810;51.178;3.878;2023-06-10T07:49:15;33.30;99.90
23283;DHT22;11810;51.178;3.878;2023-06-10T07:51:41;33.50;99.90
23283;DHT22;11810;51.178;3.878;2023-06-10T07:54:07;33.80;99.90
23283;DHT22;11810;51.178;3.878;2023-06-10T07:56:33;34.10;99.90
23283;DHT22;11810;51.178;3.878;2023-06-10T07:58:58;34.50;99.10
23283;DHT22;11810;51.178;3.878;2023-06-10T08:01:25;34.60;98.40
23283;DHT22;11810;51.178;3.878;2023-06-10T08:03:51;34.40;97.70
23283;DHT22;11810;51.178;3.878;2023-06-10T08:06:17;35.10;98.10
23283;DHT22;11810;51.178;3.878;2023-06-10T08:08:44;35.40;97.30
23283;DHT22;11810;51.178;3.878;2023-06-10T08:11:11;35.70;95.40
23283;DHT22;11810;51.178;3.878;2023-06-10T08:13:37;35.80;95.20
23283;DHT22;11810;51.178;3.878;2023-06-10T08:16:03;36.20;95.10
23283;DHT22;11810;51.178;3.878;2023-06-10T08:18:29;36.10;94.40
23283;DHT22;11810;51.178;3.878;2023-06-10T08:20:55;36.30;93.60
23283;DHT22;11810;51.178;3.878;2023-06-10T08:23:21;36.00;93.30
23283;DHT22;11810;51.178;3.878;2023-06-10T08:25:47;36.10;93.00
23283;DHT22;11810;51.178;3.878;2023-06-10T08:28:13;36.30;92.30
23283;DHT22;11810;51.178;3.878;2023-06-10T08:30:39;36.40;92.70
23283;DHT22;11810;51.178;3.878;2023-06-10T08:33:05;36.60;91.50
23283;DHT22;11810;51.178;3.878;2023-06-10T08:35:31;36.60;90.80
23283;DHT22;11810;51.178;3.878;2023-06-10T08:37:57;36.90;91.00
23283;DHT22;11810;51.178;3.878;2023-06-10T08:40:23;37.20;89.00
23283;DHT22;11810;51.178;3.878;2023-06-10T08:45:29;37.40;86.50
23283;DHT22;11810;51.178;3.878;2023-06-10T08:47:57;37.80;85.20
23283;DHT22;11810;51.178;3.878;2023-06-10T08:50:25;37.90;85.40
23283;DHT22;11810;51.178;3.878;2023-06-10T08:52:55;37.90;83.40
23283;DHT22;11810;51.178;3.878;2023-06-10T08:55:52;37.10;83.90
23283;DHT22;11810;51.178;3.878;2023-06-10T08:58:19;37.20;83.20
23283;DHT22;11810;51.178;3.878;2023-06-10T09:00:46;37.20;82.40
23283;DHT22;11810;51.178;3.878;2023-06-10T09:03:12;37.40;81.70
23283;DHT22;11810;51.178;3.878;2023-06-10T09:05:39;37.20;80.70
23283;DHT22;11810;51.178;3.878;2023-06-10T09:08:08;36.90;81.80
23283;DHT22;11810;51.178;3.878;2023-06-10T09:10:35;36.90;81.80
23283;DHT22;11810;51.178;3.878;2023-06-10T09:13:01;37.20;82.30
23283;DHT22;11810;51.178;3.878;2023-06-10T09:15:27;38.00;80.60
23283;DHT22;11810;51.178;3.878;2023-06-10T09:17:53;37.90;79.00
23283;DHT22;11810;51.178;3.878;2023-06-10T09:20:19;37.60;79.40
23283;DHT22;11810;51.178;3.878;2023-06-10T09:22:45;37.60;80.40
23283;DHT22;11810;51.178;3.878;2023-06-10T09:25:12;37.60;79.80
23283;DHT22;11810;51.178;3.878;2023-06-10T09:27:51;37.80;78.80
23283;DHT22;11810;51.178;3.878;2023-06-10T09:30:31;37.80;77.20
23283;DHT22;11810;51.178;3.878;2023-06-10T09:32:59;38.10;76.10
23283;DHT22;11810;51.178;3.878;2023-06-10T09:35:27;38.20;76.10
23283;DHT22;11810;51.178;3.878;2023-06-10T09:37:57;38.00;75.00
23283;DHT22;11810;51.178;3.878;2023-06-10T09:40:23;38.20;75.40
23283;DHT22;11810;51.178;3.878;2023-06-10T09:42:59;38.70;76.70
23283;DHT22;11810;51.178;3.878;2023-06-10T09:45:30;38.80;75.80
23283;DHT22;11810;51.178;3.878;2023-06-10T09:47:59;38.70;75.70
23283;DHT22;11810;51.178;3.878;2023-06-10T09:50:25;39.40;73.70
23283;DHT22;11810;51.178;3.878;2023-06-10T09:52:51;39.60;74.00
23283;DHT22;11810;51.178;3.878;2023-06-10T09:55:17;39.30;71.90
23283;DHT22;11810;51.178;3.878;2023-06-10T09:57:44;39.30;71.00
23283;DHT22;11810;51.178;3.878;2023-06-10T10:00:14;39.20;71.20
23283;DHT22;11810;51.178;3.878;2023-06-10T10:02:49;39.70;71.40
23283;DHT22;11810;51.178;3.878;2023-06-10T10:05:16;40.00;71.40
23283;DHT22;11810;51.178;3.878;2023-06-10T10:07:43;40.70;69.40
23283;DHT22;11810;51.178;3.878;2023-06-10T10:10:10;39.50;69.10
23283;DHT22;11810;51.178;3.878;2023-06-10T10:12:39;39.50;67.90
23283;DHT22;11810;51.178;3.878;2023-06-10T10:15:09;39.80;68.60
23283;DHT22;11810;51.178;3.878;2023-06-10T10:17:49;39.70;66.30
23283;DHT22;11810;51.178;3.878;2023-06-10T10:20:20;39.10;66.70
23283;DHT22;11810;51.178;3.878;2023-06-10T10:22:50;39.30;67.00
23283;DHT22;11810;51.178;3.878;2023-06-10T10:25:32;39.70;67.30
23283;DHT22;11810;51.178;3.878;2023-06-10T10:30:48;41.00;66.20
23283;DHT22;11810;51.178;3.878;2023-06-10T10:35:53;40.30;62.50
23283;DHT22;11810;51.178;3.878;2023-06-10T10:38:19;39.80;62.60
23283;DHT22;11810;51.178;3.878;2023-06-10T10:40:47;39.50;64.20
23283;DHT22;11810;51.178;3.878;2023-06-10T10:43:13;40.20;64.50
23283;DHT22;11810;51.178;3.878;2023-06-10T10:45:40;40.20;62.00
23283;DHT22;11810;51.178;3.878;2023-06-10T10:48:08;39.80;61.90
23283;DHT22;11810;51.178;3.878;2023-06-10T10:50:37;39.10;63.10
23283;DHT22;11810;51.178;3.878;2023-06-10T10:53:05;39.40;62.10
23283;DHT22;11810;51.178;3.878;2023-06-10T10:55:31;39.80;62.90
23283;DHT22;11810;51.178;3.878;2023-06-10T10:58:07;40.10;62.60
23283;DHT22;11810;51.178;3.878;2023-06-10T11:00:43;40.40;63.20
23283;DHT22;11810;51.178;3.878;2023-06-10T11:03:14;40.80;62.90
23283;DHT22;11810;51.178;3.878;2023-06-10T11:08:10;40.40;60.80
23283;DHT22;11810;51.178;3.878;2023-06-10T11:10:40;40.10;61.10
23283;DHT22;11810;51.178;3.878;2023-06-10T11:13:13;40.30;60.80
23283;DHT22;11810;51.178;3.878;2023-06-10T11:15:46;40.60;60.30
23283;DHT22;11810;51.178;3.878;2023-06-10T11:23:38;40.10;59.20
23283;DHT22;11810;51.178;3.878;2023-06-10T11:31:22;41.90;59.10
23283;DHT22;11810;51.178;3.878;2023-06-10T11:36:20;41.00;57.60
23283;DHT22;11810;51.178;3.878;2023-06-10T11:38:46;40.90;57.30
23283;DHT22;11810;51.178;3.878;2023-06-10T11:41:12;40.50;56.80
23283;DHT22;11810;51.178;3.878;2023-06-10T11:43:48;40.70;58.20
23283;DHT22;11810;51.178;3.878;2023-06-10T11:46:14;41.00;56.10
23283;DHT22;11810;51.178;3.878;2023-06-10T11:48:57;40.20;56.20
23283;DHT22;11810;51.178;3.878;2023-06-10T11:51:27;40.10;56.30
23283;DHT22;11810;51.178;3.878;2023-06-10T11:53:54;40.40;57.00
23283;DHT22;11810;51.178;3.878;2023-06-10T11:56:25;40.40;56.40
23283;DHT22;11810;51.178;3.878;2023-06-10T11:58:56;39.80;56.60
23283;DHT22;11810;51.178;3.878;2023-06-10T12:01:24;40.10;57.90
23283;DHT22;11810;51.178;3.878;2023-06-10T12:04:19;40.60;55.70
23283;DHT22;11810;51.178;3.878;2023-06-10T12:06:51;40.00;56.20
23283;DHT22;11810;51.178;3.878;2023-06-10T12:09:28;40.30;55.70
23283;DHT22;11810;51.178;3.878;2023-06-10T12:12:02;40.20;55.80
23283;DHT22;11810;51.178;3.878;2023-06-10T12:14:59;39.60;57.20
23283;DHT22;11810;51.178;3.878;2023-06-10T12:20:01;41.00;55.60
23283;DHT22;11810;51.178;3.878;2023-06-10T12:22:42;40.90;55.30
23283;DHT22;11810;51.178;3.878;2023-06-10T12:25:09;40.90;55.40
23283;DHT22;11810;51.178;3.878;2023-06-10T12:27:35;41.00;55.60
23283;DHT22;11810;51.178;3.878;2023-06-10T12:30:04;40.70;55.10
23283;DHT22;11810;51.178;3.878;2023-06-10T12:32:44;39.70;54.90
23283;DHT22;11810;51.178;3.878;2023-06-10T12:35:13;39.70;55.20
23283;DHT22;11810;51.178;3.878;2023-06-10T12:37:40;39.30;55.90
23283;DHT22;11810;51.178;3.878;2023-06-10T12:40:07;39.10;56.40
23283;DHT22;11810;51.178;3.878;2023-06-10T12:42:36;39.50;56.40
23283;DHT22;11810;51.178;3.878;2023-06-10T12:45:03;39.90;55.50
23283;DHT22;11810;51.178;3.878;2023-06-10T12:47:33;39.90;56.10
23283;DHT22;11810;51.178;3.878;2023-06-10T12:50:01;39.10;56.10
23283;DHT22;11810;51.178;3.878;2023-06-10T12:52:27;38.90;56.00
23283;DHT22;11810;51.178;3.878;2023-06-10T12:54:54;39.60;56.80
23283;DHT22;11810;51.178;3.878;2023-06-10T12:57:21;40.00;55.80
23283;DHT22;11810;51.178;3.878;2023-06-10T12:59:47;39.80;54.40
23283;DHT22;11810;51.178;3.878;2023-06-10T13:02:18;39.60;54.80
23283;DHT22;11810;51.178;3.878;2023-06-10T13:04:46;40.00;55.30
23283;DHT22;11810;51.178;3.878;2023-06-10T13:07:12;39.20;55.60
23283;DHT22;11810;51.178;3.878;2023-06-10T13:09:38;38.60;56.20
23283;DHT22;11810;51.178;3.878;2023-06-10T13:12:05;38.00;55.50
23283;DHT22;11810;51.178;3.878;2023-06-10T13:14:31;38.00;55.90
23283;DHT22;11810;51.178;3.878;2023-06-10T13:16:57;37.60;55.80
23283;DHT22;11810;51.178;3.878;2023-06-10T13:19:23;38.00;56.60
23283;DHT22;11810;51.178;3.878;2023-06-10T13:21:49;38.10;57.20
23283;DHT22;11810;51.178;3.878;2023-06-10T13:24:15;38.40;56.00
23283;DHT22;11810;51.178;3.878;2023-06-10T13:26:41;38.30;55.60
23283;DHT22;11810;51.178;3.878;2023-06-10T13:29:07;38.40;55.60
23283;DHT22;11810;51.178;3.878;2023-06-10T13:31:40;38.30;55.80
23283;DHT22;11810;51.178;3.878;2023-06-10T13:34:06;38.70;55.60
23283;DHT22;11810;51.178;3.878;2023-06-10T13:36:32;38.90;55.60
23283;DHT22;11810;51.178;3.878;2023-06-10T13:38:58;38.70;56.20
23283;DHT22;11810;51.178;3.878;2023-06-10T13:41:24;38.80;55.60
23283;DHT22;11810;51.178;3.878;2023-06-10T13:43:50;38.50;54.80
23283;DHT22;11810;51.178;3.878;2023-06-10T13:46:16;38.30;55.00
23283;DHT22;11810;51.178;3.878;2023-06-10T13:48:42;38.30;55.60
23283;DHT22;11810;51.178;3.878;2023-06-10T13:51:08;37.90;55.00
23283;DHT22;11810;51.178;3.878;2023-06-10T13:53:35;37.70;56.00
23283;DHT22;11810;51.178;3.878;2023-06-10T13:56:01;38.20;56.20
23283;DHT22;11810;51.178;3.878;2023-06-10T13:58:27;38.00;55.20
23283;DHT22;11810;51.178;3.878;2023-06-10T14:00:53;37.60;55.50
23283;DHT22;11810;51.178;3.878;2023-06-10T14:03:20;37.50;55.90
23283;DHT22;11810;51.178;3.878;2023-06-10T14:05:46;37.40;55.90
23283;DHT22;11810;51.178;3.878;2023-06-10T14:08:12;37.30;56.10
23283;DHT22;11810;51.178;3.878;2023-06-10T14:10:38;37.40;55.70
23283;DHT22;11810;51.178;3.878;2023-06-10T14:13:05;37.60;55.90
23283;DHT22;11810;51.178;3.878;2023-06-10T14:15:31;37.60;55.70
23283;DHT22;11810;51.178;3.878;2023-06-10T14:17:58;37.40;55.90
23283;DHT22;11810;51.178;3.878;2023-06-10T14:20:24;37.40;55.80
23283;DHT22;11810;51.178;3.878;2023-06-10T14:22:52;37.30;57.00
23283;DHT22;11810;51.178;3.878;2023-06-10T14:25:18;37.70;57.10
23283;DHT22;11810;51.178;3.878;2023-06-10T14:27:44;37.90;55.50
23283;DHT22;11810;51.178;3.878;2023-06-10T14:30:13;37.40;55.60
23283;DHT22;11810;51.178;3.878;2023-06-10T14:32:39;37.10;56.20
23283;DHT22;11810;51.178;3.878;2023-06-10T14:35:05;37.00;55.90
23283;DHT22;11810;51.178;3.878;2023-06-10T14:37:31;37.20;55.50
23283;DHT22;11810;51.178;3.878;2023-06-10T14:39:57;37.20;55.50
23283;DHT22;11810;51.178;3.878;2023-06-10T14:42:23;37.40;55.20
23283;DHT22;11810;51.178;3.878;2023-06-10T14:44:48;37.60;55.40
23283;DHT22;11810;51.178;3.878;2023-06-10T14:47:15;37.10;55.60
23283;DHT22;11810;51.178;3.878;2023-06-10T14:49:41;36.90;55.70
23283;DHT22;11810;51.178;3.878;2023-06-10T14:52:09;36.50;55.80
23283;DHT22;11810;51.178;3.878;2023-06-10T14:54:35;36.30;55.60
23283;DHT22;11810;51.178;3.878;2023-06-10T14:57:01;36.00;55.90
23283;DHT22;11810;51.178;3.878;2023-06-10T14:59:27;36.00;55.90
23283;DHT22;11810;51.178;3.878;2023-06-10T15:01:53;36.20;56.20
23283;DHT22;11810;51.178;3.878;2023-06-10T15:04:19;36.20;56.40
23283;DHT22;11810;51.178;3.878;2023-06-10T15:06:45;36.40;56.80
23283;DHT22;11810;51.178;3.878;2023-06-10T15:09:11;36.70;55.60
23283;DHT22;11810;51.178;3.878;2023-06-10T15:11:36;36.50;56.20
23283;DHT22;11810;51.178;3.878;2023-06-10T15:14:03;36.10;56.10
23283;DHT22;11810;51.178;3.878;2023-06-10T15:16:29;36.10;56.30
23283;DHT22;11810;51.178;3.878;2023-06-10T15:18:55;35.90;56.60
23283;DHT22;11810;51.178;3.878;2023-06-10T15:21:21;36.00;56.30
23283;DHT22;11810;51.178;3.878;2023-06-10T15:23:47;36.00;56.10
23283;DHT22;11810;51.178;3.878;2023-06-10T15:26:12;36.20;56.30
23283;DHT22;11810;51.178;3.878;2023-06-10T15:28:38;36.20;56.50
23283;DHT22;11810;51.178;3.878;2023-06-10T15:31:05;36.30;56.30
23283;DHT22;11810;51.178;3.878;2023-06-10T15:33:30;36.30;55.70
23283;DHT22;11810;51.178;3.878;2023-06-10T15:35:56;36.10;56.40
23283;DHT22;11810;51.178;3.878;2023-06-10T15:38:22;36.00;57.40
23283;DHT22;11810;51.178;3.878;2023-06-10T15:40:48;36.10;57.50
23283;DHT22;11810;51.178;3.878;2023-06-10T15:43:14;36.00;56.70
23283;DHT22;11810;51.178;3.878;2023-06-10T15:45:40;35.90;56.50
23283;DHT22;11810;51.178;3.878;2023-06-10T15:48:06;35.50;56.80
23283;DHT22;11810;51.178;3.878;2023-06-10T15:50:32;35.60;56.80
23283;DHT22;11810;51.178;3.878;2023-06-10T15:52:58;35.30;56.30
23283;DHT22;11810;51.178;3.878;2023-06-10T15:55:24;35.20;56.80
23283;DHT22;11810;51.178;3.878;2023-06-10T15:57:51;35.60;57.60
23283;DHT22;11810;51.178;3.878;2023-06-10T16:00:17;35.60;57.40
23283;DHT22;11810;51.178;3.878;2023-06-10T16:02:43;35.40;57.20